sensor_id;sensor_type;location;lat;lon;timestamp;pressure;altitude;pressure_sealevel;temperature;humidity
61113;BME280;47184;57.998;56.184;2023-03-01T00:01:50;97779.41;;;-3.87;71.44
61113;BME280;47184;57.998;56.184;2023-03-01T00:04:16;97781.19;;;-3.88;71.28
61113;BME280;47184;57.998;56.184;2023-03-01T00:06:43;97775.84;;;-3.96;71.34
61113;BME280;47184;57.998;56.184;2023-03-01T00:09:13;97776.69;;;-3.86;71.36
61113;BME280;47184;57.998;56.184;2023-03-01T00:11:39;97773.25;;;-3.96;71.68
61113;BME280;47184;57.998;56.184;2023-03-01T00:14:05;97755.63;;;-4.12;71.55
61113;BME280;47184;57.998;56.184;2023-03-01T00:16:35;97744.50;;;-4.12;71.60
61113;BME280;47184;57.998;56.184;2023-03-01T00:19:02;97764.19;;;-4.11;71.74
61113;BME280;47184;57.998;56.184;2023-03-01T00:21:28;97746.13;;;-4.32;72.27
61113;BME280;47184;57.998;56.184;2023-03-01T00:23:55;97766.44;;;-4.29;72.10
61113;BME280;47184;57.998;56.184;2023-03-01T00:26:23;97770.13;;;-4.32;72.20
61113;BME280;47184;57.998;56.184;2023-03-01T00:28:49;97767.31;;;-4.08;71.86
61113;BME280;47184;57.998;56.184;2023-03-01T00:31:19;97761.84;;;-4.14;71.96
61113;BME280;47184;57.998;56.184;2023-03-01T00:33:45;97755.16;;;-4.17;72.08
61113;BME280;47184;57.998;56.184;2023-03-01T00:36:13;97756.56;;;-4.13;71.92
61113;BME280;47184;57.998;56.184;2023-03-01T00:38:43;97753.28;;;-4.15;72.16
61113;BME280;47184;57.998;56.184;2023-03-01T00:41:14;97744.38;;;-4.11;71.99
61113;BME280;47184;57.998;56.184;2023-03-01T00:43:41;97748.13;;;-4.15;72.24
61113;BME280;47184;57.998;56.184;2023-03-01T00:46:19;97745.75;;;-4.28;72.47
61113;BME280;47184;57.998;56.184;2023-03-01T00:48:46;97745.63;;;-4.37;72.95
61113;BME280;47184;57.998;56.184;2023-03-01T00:53:40;97723.50;;;-4.29;72.83
61113;BME280;47184;57.998;56.184;2023-03-01T00:56:08;97741.06;;;-4.34;73.07
61113;BME280;47184;57.998;56.184;2023-03-01T00:58:35;97739.81;;;-4.39;73.37
61113;BME280;47184;57.998;56.184;2023-03-01T01:01:11;97736.00;;;-4.56;73.89
61113;BME280;47184;57.998;56.184;2023-03-01T01:03:50;97727.94;;;-4.63;74.36
61113;BME280;47184;57.998;56.184;2023-03-01T01:06:26;97739.16;;;-4.53;73.89
61113;BME280;47184;57.998;56.184;2023-03-01T01:08:53;97732.56;;;-4.45;73.83
61113;BME280;47184;57.998;56.184;2023-03-01T01:11:21;97729.44;;;-4.49;74.13
61113;BME280;47184;57.998;56.184;2023-03-01T01:13:47;97724.94;;;-4.36;73.68
61113;BME280;47184;57.998;56.184;2023-03-01T01:16:15;97721.34;;;-4.44;73.76
61113;BME280;47184;57.998;56.184;2023-03-01T01:18:42;97720.63;;;-4.46;73.92
61113;BME280;47184;57.998;56.184;2023-03-01T01:21:11;97716.88;;;-4.42;73.65
61113;BME280;47184;57.998;56.184;2023-03-01T01:23:39;97684.53;;;-4.67;73.99
61113;BME280;47184;57.998;56.184;2023-03-01T01:26:28;97695.75;;;-4.57;73.95
61113;BME280;47184;57.998;56.184;2023-03-01T01:28:55;97696.63;;;-4.47;73.84
61113;BME280;47184;57.998;56.184;2023-03-01T01:31:22;97710.16;;;-4.34;73.86
61113;BME280;47184;57.998;56.184;2023-03-01T01:33:52;97706.19;;;-4.38;73.64
61113;BME280;47184;57.998;56.184;2023-03-01T01:36:18;97715.69;;;-4.38;73.79
61113;BME280;47184;57.998;56.184;2023-03-01T01:38:44;97712.34;;;-4.29;73.49
61113;BME280;47184;57.998;56.184;2023-03-01T01:41:13;97706.31;;;-4.39;74.21
61113;BME280;47184;57.998;56.184;2023-03-01T01:43:48;97713.34;;;-4.41;73.88
61113;BME280;47184;57.998;56.184;2023-03-01T01:48:55;97708.47;;;-4.44;74.03
61113;BME280;47184;57.998;56.184;2023-03-01T01:51:27;97711.47;;;-4.39;73.88
61113;BME280;47184;57.998;56.184;2023-03-01T01:53:59;97704.13;;;-4.44;74.50
61113;BME280;47184;57.998;56.184;2023-03-01T01:56:27;97694.88;;;-4.46;74.48
61113;BME280;47184;57.998;56.184;2023-03-01T01:58:54;97701.41;;;-4.42;74.55
61113;BME280;47184;57.998;56.184;2023-03-01T02:01:21;97705.34;;;-4.59;74.98
61113;BME280;47184;57.998;56.184;2023-03-01T02:03:47;97712.25;;;-4.60;75.32
61113;BME280;47184;57.998;56.184;2023-03-01T02:06:34;97702.84;;;-4.50;75.00
61113;BME280;47184;57.998;56.184;2023-03-01T02:09:08;97697.88;;;-4.41;74.76
61113;BME280;47184;57.998;56.184;2023-03-01T02:11:37;97703.25;;;-4.33;74.30
61113;BME280;47184;57.998;56.184;2023-03-01T02:14:04;97702.06;;;-4.29;74.52
61113;BME280;47184;57.998;56.184;2023-03-01T02:16:30;97699.84;;;-4.34;74.49
61113;BME280;47184;57.998;56.184;2023-03-01T02:18:57;97696.66;;;-4.26;74.44
61113;BME280;47184;57.998;56.184;2023-03-01T02:21:51;97684.72;;;-4.27;74.12
61113;BME280;47184;57.998;56.184;2023-03-01T02:24:45;97689.16;;;-4.29;74.41
61113;BME280;47184;57.998;56.184;2023-03-01T02:27:15;97687.25;;;-4.37;74.11
61113;BME280;47184;57.998;56.184;2023-03-01T02:29:42;97686.66;;;-4.40;74.17
61113;BME280;47184;57.998;56.184;2023-03-01T02:32:11;97670.03;;;-4.36;74.24
61113;BME280;47184;57.998;56.184;2023-03-01T02:34:38;97670.50;;;-4.21;73.79
61113;BME280;47184;57.998;56.184;2023-03-01T02:37:12;97658.25;;;-4.29;74.05
61113;BME280;47184;57.998;56.184;2023-03-01T02:39:43;97680.97;;;-4.23;73.79
61113;BME280;47184;57.998;56.184;2023-03-01T02:42:21;97677.84;;;-4.17;73.80
61113;BME280;47184;57.998;56.184;2023-03-01T02:44:49;97680.56;;;-4.18;73.72
61113;BME280;47184;57.998;56.184;2023-03-01T02:47:15;97676.66;;;-4.34;74.19
61113;BME280;47184;57.998;56.184;2023-03-01T02:49:42;97677.00;;;-4.27;73.92
61113;BME280;47184;57.998;56.184;2023-03-01T02:52:21;97659.53;;;-4.44;73.77
61113;BME280;47184;57.998;56.184;2023-03-01T02:54:58;97660.63;;;-4.37;73.93
61113;BME280;47184;57.998;56.184;2023-03-01T02:57:27;97665.97;;;-4.29;73.82
61113;BME280;47184;57.998;56.184;2023-03-01T02:59:55;97661.81;;;-4.41;74.16
61113;BME280;47184;57.998;56.184;2023-03-01T03:02:26;97655.88;;;-4.42;74.30
61113;BME280;47184;57.998;56.184;2023-03-01T03:07:37;97652.59;;;-4.44;73.81
61113;BME280;47184;57.998;56.184;2023-03-01T03:10:05;97662.38;;;-4.59;74.24
61113;BME280;47184;57.998;56.184;2023-03-01T03:12:33;97659.84;;;-4.70;74.48
61113;BME280;47184;57.998;56.184;2023-03-01T03:14:59;97647.56;;;-4.45;73.99
61113;BME280;47184;57.998;56.184;2023-03-01T03:17:25;97630.25;;;-4.43;73.77
61113;BME280;47184;57.998;56.184;2023-03-01T03:19:51;97642.78;;;-4.29;73.29
61113;BME280;47184;57.998;56.184;2023-03-01T03:22:18;97630.47;;;-4.26;73.40
61113;BME280;47184;57.998;56.184;2023-03-01T03:24:44;97650.72;;;-4.21;73.44
61113;BME280;47184;57.998;56.184;2023-03-01T03:27:10;97650.59;;;-4.19;73.26
61113;BME280;47184;57.998;56.184;2023-03-01T03:29:36;97646.50;;;-4.22;73.28
61113;BME280;47184;57.998;56.184;2023-03-01T03:32:02;97637.91;;;-4.32;73.82
61113;BME280;47184;57.998;56.184;2023-03-01T03:34:30;97645.66;;;-4.32;73.76
61113;BME280;47184;57.998;56.184;2023-03-01T03:36:56;97644.00;;;-4.33;74.13
61113;BME280;47184;57.998;56.184;2023-03-01T03:39:26;97639.59;;;-4.21;73.87
61113;BME280;47184;57.998;56.184;2023-03-01T03:41:53;97640.69;;;-4.24;73.90
61113;BME280;47184;57.998;56.184;2023-03-01T03:44:20;97646.84;;;-4.36;74.62
61113;BME280;47184;57.998;56.184;2023-03-01T03:46:47;97633.19;;;-4.48;74.88
61113;BME280;47184;57.998;56.184;2023-03-01T03:49:13;97633.59;;;-4.32;74.87
61113;BME280;47184;57.998;56.184;2023-03-01T03:51:39;97631.06;;;-4.22;74.67
61113;BME280;47184;57.998;56.184;2023-03-01T03:54:05;97634.00;;;-4.27;75.22
61113;BME280;47184;57.998;56.184;2023-03-01T03:56:31;97630.47;;;-4.26;75.35
61113;BME280;47184;57.998;56.184;2023-03-01T03:58:57;97631.63;;;-4.18;74.94
61113;BME280;47184;57.998;56.184;2023-03-01T04:01:23;97622.13;;;-4.18;75.31
61113;BME280;47184;57.998;56.184;2023-03-01T04:03:49;97630.28;;;-4.13;75.15
61113;BME280;47184;57.998;56.184;2023-03-01T04:06:20;97631.00;;;-4.11;75.45
61113;BME280;47184;57.998;56.184;2023-03-01T04:08:46;97604.50;;;-4.13;75.45
61113;BME280;47184;57.998;56.184;2023-03-01T04:11:16;97609.31;;;-4.08;75.09
61113;BME280;47184;57.998;56.184;2023-03-01T04:13:54;97627.41;;;-3.99;74.84
61113;BME280;47184;57.998;56.184;2023-03-01T04:16:20;97630.78;;;-3.98;75.07
61113;BME280;47184;57.998;56.184;2023-03-01T04:18:46;97622.38;;;-4.00;75.27
61113;BME280;47184;57.998;56.184;2023-03-01T04:21:13;97620.56;;;-3.79;75.38
61113;BME280;47184;57.998;56.184;2023-03-01T04:23:39;97622.63;;;-3.72;74.84
61113;BME280;47184;57.998;56.184;2023-03-01T04:26:06;97626.28;;;-3.75;75.06
61113;BME280;47184;57.998;56.184;2023-03-01T04:28:41;97607.03;;;-3.71;74.99
61113;BME280;47184;57.998;56.184;2023-03-01T04:31:13;97606.34;;;-3.73;75.03
61113;BME280;47184;57.998;56.184;2023-03-01T04:33:41;97623.34;;;-3.61;74.71
61113;BME280;47184;57.998;56.184;2023-03-01T04:36:08;97622.38;;;-3.60;74.46
61113;BME280;47184;57.998;56.184;2023-03-01T04:38:35;97625.53;;;-3.56;74.21
61113;BME280;47184;57.998;56.184;2023-03-01T04:41:09;97599.00;;;-3.68;74.05
61113;BME280;47184;57.998;56.184;2023-03-01T04:43:35;97620.66;;;-3.50;73.87
61113;BME280;47184;57.998;56.184;2023-03-01T04:46:03;97625.28;;;-3.43;73.90
61113;BME280;47184;57.998;56.184;2023-03-01T04:48:30;97618.00;;;-3.38;73.58
61113;BME280;47184;57.998;56.184;2023-03-01T04:50:59;97618.56;;;-3.65;73.61
61113;BME280;47184;57.998;56.184;2023-03-01T04:53:26;97581.19;;;-3.81;73.48
61113;BME280;47184;57.998;56.184;2023-03-01T04:55:54;97636.63;;;-3.65;73.43
61113;BME280;47184;57.998;56.184;2023-03-01T04:58:20;97622.75;;;-3.74;73.43
61113;BME280;47184;57.998;56.184;2023-03-01T05:00:46;97617.69;;;-3.85;73.40
61113;BME280;47184;57.998;56.184;2023-03-01T05:03:12;97621.25;;;-3.77;73.71
61113;BME280;47184;57.998;56.184;2023-03-01T05:05:38;97602.72;;;-3.61;73.38
61113;BME280;47184;57.998;56.184;2023-03-01T05:08:06;97613.66;;;-3.38;72.87
61113;BME280;47184;57.998;56.184;2023-03-01T05:10:35;97601.56;;;-3.28;73.08
61113;BME280;47184;57.998;56.184;2023-03-01T05:13:03;97616.00;;;-3.15;72.77
61113;BME280;47184;57.998;56.184;2023-03-01T05:15:30;97614.06;;;-3.23;72.31
61113;BME280;47184;57.998;56.184;2023-03-01T05:17:59;97618.09;;;-3.50;72.77
61113;BME280;47184;57.998;56.184;2023-03-01T05:20:27;97620.66;;;-3.50;73.38
61113;BME280;47184;57.998;56.184;2023-03-01T05:22:58;97618.25;;;-3.41;72.88
61113;BME280;47184;57.998;56.184;2023-03-01T05:25:26;97594.72;;;-3.58;73.34
61113;BME280;47184;57.998;56.184;2023-03-01T05:27:52;97604.53;;;-3.42;73.26
61113;BME280;47184;57.998;56.184;2023-03-01T05:30:18;97605.09;;;-3.29;72.73
61113;BME280;47184;57.998;56.184;2023-03-01T05:32:47;97609.47;;;-3.29;73.12
61113;BME280;47184;57.998;56.184;2023-03-01T05:35:16;97603.44;;;-3.39;73.03
61113;BME280;47184;57.998;56.184;2023-03-01T05:37:44;97599.25;;;-3.40;73.11
61113;BME280;47184;57.998;56.184;2023-03-01T05:40:12;97596.53;;;-3.39;73.25
61113;BME280;47184;57.998;56.184;2023-03-01T05:42:43;97592.22;;;-3.29;73.25
61113;BME280;47184;57.998;56.184;2023-03-01T05:45:10;97591.00;;;-3.25;73.42
61113;BME280;47184;57.998;56.184;2023-03-01T05:47:36;97582.84;;;-3.20;73.65
61113;BME280;47184;57.998;56.184;2023-03-01T05:50:02;97594.00;;;-3.10;73.59
61113;BME280;47184;57.998;56.184;2023-03-01T05:52:28;97581.50;;;-2.95;72.69
61113;BME280;47184;57.998;56.184;2023-03-01T05:54:54;97581.13;;;-2.81;72.89
61113;BME280;47184;57.998;56.184;2023-03-01T05:57:21;97594.72;;;-2.98;72.66
61113;BME280;47184;57.998;56.184;2023-03-01T05:59:46;97584.09;;;-2.95;72.35
61113;BME280;47184;57.998;56.184;2023-03-01T06:02:12;97584.22;;;-2.87;72.66
61113;BME280;47184;57.998;56.184;2023-03-01T06:04:39;97581.22;;;-2.82;71.89
61113;BME280;47184;57.998;56.184;2023-03-01T06:07:05;97569.69;;;-2.97;72.25
61113;BME280;47184;57.998;56.184;2023-03-01T06:09:31;97571.19;;;-3.05;71.87
61113;BME280;47184;57.998;56.184;2023-03-01T06:11:57;97583.69;;;-2.81;71.51
61113;BME280;47184;57.998;56.184;2023-03-01T06:14:23;97587.09;;;-2.90;71.69
61113;BME280;47184;57.998;56.184;2023-03-01T06:16:49;97579.06;;;-2.96;71.82
61113;BME280;47184;57.998;56.184;2023-03-01T06:19:15;97574.19;;;-2.80;71.52
61113;BME280;47184;57.998;56.184;2023-03-01T06:21:41;97570.66;;;-2.89;71.43
61113;BME280;47184;57.998;56.184;2023-03-01T06:24:07;97580.84;;;-2.97;71.82
61113;BME280;47184;57.998;56.184;2023-03-01T06:26:34;97572.13;;;-2.86;71.65
61113;BME280;47184;57.998;56.184;2023-03-01T06:29:00;97576.06;;;-2.82;71.15
61113;BME280;47184;57.998;56.184;2023-03-01T06:31:26;97567.81;;;-2.86;71.71
61113;BME280;47184;57.998;56.184;2023-03-01T06:33:52;97580.41;;;-2.83;71.32
61113;BME280;47184;57.998;56.184;2023-03-01T06:36:18;97575.28;;;-3.02;72.32
61113;BME280;47184;57.998;56.184;2023-03-01T06:38:46;97555.28;;;-3.10;72.38
61113;BME280;47184;57.998;56.184;2023-03-01T06:41:12;97572.41;;;-2.99;72.09
61113;BME280;47184;57.998;56.184;2023-03-01T06:43:38;97561.28;;;-2.90;72.18
61113;BME280;47184;57.998;56.184;2023-03-01T06:46:05;97537.09;;;-2.89;72.01
61113;BME280;47184;57.998;56.184;2023-03-01T06:48:33;97570.75;;;-2.52;71.83
61113;BME280;47184;57.998;56.184;2023-03-01T06:51:00;97551.13;;;-2.35;71.60
61113;BME280;47184;57.998;56.184;2023-03-01T06:53:29;97541.50;;;-2.42;71.71
61113;BME280;47184;57.998;56.184;2023-03-01T06:55:56;97560.31;;;-2.13;71.19
61113;BME280;47184;57.998;56.184;2023-03-01T06:58:23;97547.16;;;-2.19;71.64
61113;BME280;47184;57.998;56.184;2023-03-01T07:00:49;97557.31;;;-2.08;71.22
61113;BME280;47184;57.998;56.184;2023-03-01T07:03:15;97564.34;;;-1.91;71.16
61113;BME280;47184;57.998;56.184;2023-03-01T07:05:41;97559.75;;;-1.69;71.22
61113;BME280;47184;57.998;56.184;2023-03-01T07:08:07;97543.25;;;-1.41;70.45
61113;BME280;47184;57.998;56.184;2023-03-01T07:10:33;97531.94;;;-1.22;70.34
61113;BME280;47184;57.998;56.184;2023-03-01T07:12:59;97555.63;;;-0.99;69.29
61113;BME280;47184;57.998;56.184;2023-03-01T07:15:27;97549.50;;;-0.98;69.09
61113;BME280;47184;57.998;56.184;2023-03-01T07:17:53;97546.91;;;-0.98;69.03
61113;BME280;47184;57.998;56.184;2023-03-01T07:20:19;97555.47;;;-1.15;68.29
61113;BME280;47184;57.998;56.184;2023-03-01T07:22:51;97554.66;;;-1.34;68.42
61113;BME280;47184;57.998;56.184;2023-03-01T07:25:17;97552.78;;;-1.41;68.24
61113;BME280;47184;57.998;56.184;2023-03-01T07:27:43;97553.34;;;-1.47;68.56
61113;BME280;47184;57.998;56.184;2023-03-01T07:30:10;97554.13;;;-1.37;68.77
61113;BME280;47184;57.998;56.184;2023-03-01T07:32:36;97552.59;;;-1.30;68.53
61113;BME280;47184;57.998;56.184;2023-03-01T07:35:02;97555.09;;;-1.20;68.36
61113;BME280;47184;57.998;56.184;2023-03-01T07:37:28;97539.13;;;-1.16;68.58
61113;BME280;47184;57.998;56.184;2023-03-01T07:39:54;97538.53;;;-1.10;68.01
61113;BME280;47184;57.998;56.184;2023-03-01T07:42:20;97551.84;;;-1.05;67.79
61113;BME280;47184;57.998;56.184;2023-03-01T07:44:46;97524.91;;;-1.12;67.81
61113;BME280;47184;57.998;56.184;2023-03-01T07:47:13;97543.25;;;-0.87;67.97
61113;BME280;47184;57.998;56.184;2023-03-01T07:49:39;97527.94;;;-0.81;66.96
61113;BME280;47184;57.998;56.184;2023-03-01T07:52:05;97543.69;;;-0.92;66.40
61113;BME280;47184;57.998;56.184;2023-03-01T07:54:31;97507.97;;;-1.24;66.65
61113;BME280;47184;57.998;56.184;2023-03-01T07:56:57;97503.97;;;-1.36;66.50
61113;BME280;47184;57.998;56.184;2023-03-01T07:59:23;97535.47;;;-1.23;66.59
61113;BME280;47184;57.998;56.184;2023-03-01T08:01:58;97532.31;;;-1.35;66.62
61113;BME280;47184;57.998;56.184;2023-03-01T08:04:24;97525.84;;;-1.48;66.86
61113;BME280;47184;57.998;56.184;2023-03-01T08:06:54;97513.34;;;-1.53;67.15
61113;BME280;47184;57.998;56.184;2023-03-01T08:09:21;97534.22;;;-1.37;66.93
61113;BME280;47184;57.998;56.184;2023-03-01T08:11:47;97533.34;;;-1.28;67.19
61113;BME280;47184;57.998;56.184;2023-03-01T08:14:13;97529.03;;;-1.19;67.17
61113;BME280;47184;57.998;56.184;2023-03-01T08:16:39;97498.88;;;-1.28;67.19
61113;BME280;47184;57.998;56.184;2023-03-01T08:19:07;97495.63;;;-1.30;66.66
61113;BME280;47184;57.998;56.184;2023-03-01T08:21:34;97495.03;;;-1.42;66.28
61113;BME280;47184;57.998;56.184;2023-03-01T08:24:04;97516.09;;;-1.37;66.41
61113;BME280;47184;57.998;56.184;2023-03-01T08:26:32;97525.19;;;-1.33;66.73
61113;BME280;47184;57.998;56.184;2023-03-01T08:28:59;97526.63;;;-1.38;66.41
61113;BME280;47184;57.998;56.184;2023-03-01T08:31:34;97514.53;;;-1.47;65.69
61113;BME280;47184;57.998;56.184;2023-03-01T08:34:06;97505.22;;;-1.58;65.54
61113;BME280;47184;57.998;56.184;2023-03-01T08:36:40;97512.75;;;-1.65;64.88
61113;BME280;47184;57.998;56.184;2023-03-01T08:39:08;97504.69;;;-1.62;65.64
61113;BME280;47184;57.998;56.184;2023-03-01T08:41:34;97500.03;;;-1.58;65.19
61113;BME280;47184;57.998;56.184;2023-03-01T08:44:00;97510.91;;;-1.55;64.97
61113;BME280;47184;57.998;56.184;2023-03-01T08:46:28;97514.16;;;-1.53;64.46
61113;BME280;47184;57.998;56.184;2023-03-01T08:48:55;97507.72;;;-1.48;63.81
61113;BME280;47184;57.998;56.184;2023-03-01T08:51:22;97513.41;;;-1.63;63.15
61113;BME280;47184;57.998;56.184;2023-03-01T08:53:48;97514.34;;;-1.64;63.54
61113;BME280;47184;57.998;56.184;2023-03-01T08:56:15;97503.59;;;-1.59;63.72
61113;BME280;47184;57.998;56.184;2023-03-01T08:58:46;97508.00;;;-1.52;63.58
61113;BME280;47184;57.998;56.184;2023-03-01T09:01:17;97502.28;;;-1.45;63.10
61113;BME280;47184;57.998;56.184;2023-03-01T09:03:44;97496.00;;;-1.43;62.62
61113;BME280;47184;57.998;56.184;2023-03-01T09:06:11;97504.28;;;-1.21;62.19
61113;BME280;47184;57.998;56.184;2023-03-01T09:08:42;97506.50;;;-1.09;62.44
61113;BME280;47184;57.998;56.184;2023-03-01T09:11:10;97500.06;;;-1.05;62.28
61113;BME280;47184;57.998;56.184;2023-03-01T09:13:39;97482.16;;;-1.16;61.89
61113;BME280;47184;57.998;56.184;2023-03-01T09:16:07;97503.00;;;-1.00;61.47
61113;BME280;47184;57.998;56.184;2023-03-01T09:18:37;97503.38;;;-0.94;61.53
61113;BME280;47184;57.998;56.184;2023-03-01T09:23:47;97498.19;;;-0.94;61.25
61113;BME280;47184;57.998;56.184;2023-03-01T09:26:16;97500.63;;;-0.93;61.08
61113;BME280;47184;57.998;56.184;2023-03-01T09:28:43;97503.00;;;-1.00;60.75
61113;BME280;47184;57.998;56.184;2023-03-01T09:31:10;97491.25;;;-0.94;61.37
61113;BME280;47184;57.998;56.184;2023-03-01T09:33:39;97496.63;;;-0.87;60.69
61113;BME280;47184;57.998;56.184;2023-03-01T09:36:07;97491.97;;;-0.84;60.43
61113;BME280;47184;57.998;56.184;2023-03-01T09:38:34;97493.06;;;-0.68;60.22
61113;BME280;47184;57.998;56.184;2023-03-01T09:41:01;97491.81;;;-0.82;59.47
61113;BME280;47184;57.998;56.184;2023-03-01T09:45:55;97481.13;;;-0.61;59.90
61113;BME280;47184;57.998;56.184;2023-03-01T09:48:27;97474.06;;;-0.77;59.16
61113;BME280;47184;57.998;56.184;2023-03-01T09:50:56;97473.25;;;-0.78;58.88
61113;BME280;47184;57.998;56.184;2023-03-01T09:53:30;97478.72;;;-0.81;58.69
61113;BME280;47184;57.998;56.184;2023-03-01T09:56:04;97476.78;;;-0.79;58.64
61113;BME280;47184;57.998;56.184;2023-03-01T10:06:35;97468.47;;;-0.64;58.98
61113;BME280;47184;57.998;56.184;2023-03-01T10:11:37;97467.47;;;-0.03;58.15
61113;BME280;47184;57.998;56.184;2023-03-01T10:19:15;97467.81;;;0.69;57.24
61113;BME280;47184;57.998;56.184;2023-03-01T10:21:45;97465.06;;;1.19;56.67
61113;BME280;47184;57.998;56.184;2023-03-01T10:24:14;97462.09;;;1.55;56.58
61113;BME280;47184;57.998;56.184;2023-03-01T10:26:56;97459.41;;;1.88;55.91
61113;BME280;47184;57.998;56.184;2023-03-01T10:29:29;97456.22;;;2.09;56.05
61113;BME280;47184;57.998;56.184;2023-03-01T10:32:03;97454.69;;;2.22;55.48
61113;BME280;47184;57.998;56.184;2023-03-01T10:34:35;97452.63;;;2.10;55.23
61113;BME280;47184;57.998;56.184;2023-03-01T10:37:15;97434.19;;;2.19;55.19
61113;BME280;47184;57.998;56.184;2023-03-01T10:39:57;97454.19;;;2.73;54.71
61113;BME280;47184;57.998;56.184;2023-03-01T10:42:32;97442.03;;;2.88;52.60
61113;BME280;47184;57.998;56.184;2023-03-01T10:47:43;97418.38;;;3.13;49.71
61113;BME280;47184;57.998;56.184;2023-03-01T10:50:21;97444.41;;;3.36;50.49
61113;BME280;47184;57.998;56.184;2023-03-01T10:53:27;97453.69;;;3.53;50.45
61113;BME280;47184;57.998;56.184;2023-03-01T10:56:02;97443.25;;;3.97;49.73
61113;BME280;47184;57.998;56.184;2023-03-01T10:58:30;97451.53;;;4.74;49.33
61113;BME280;47184;57.998;56.184;2023-03-01T11:00:57;97445.97;;;5.05;47.53
61113;BME280;47184;57.998;56.184;2023-03-01T11:06:03;97442.13;;;5.01;47.09
61113;BME280;47184;57.998;56.184;2023-03-01T11:08:42;97439.00;;;5.12;46.73
61113;BME280;47184;57.998;56.184;2023-03-01T11:14:13;97455.84;;;3.94;44.27
61113;BME280;47184;57.998;56.184;2023-03-01T11:16:44;97443.72;;;3.04;45.15
61113;BME280;47184;57.998;56.184;2023-03-01T11:24:26;97446.19;;;1.97;47.53
61113;BME280;47184;57.998;56.184;2023-03-01T11:26:54;97445.63;;;1.63;47.44
61113;BME280;47184;57.998;56.184;2023-03-01T11:29:41;97438.22;;;1.43;47.64
61113;BME280;47184;57.998;56.184;2023-03-01T11:32:11;97446.56;;;1.22;48.31
61113;BME280;47184;57.998;56.184;2023-03-01T11:34:49;97442.50;;;0.95;48.51
61113;BME280;47184;57.998;56.184;2023-03-01T11:37:28;97449.97;;;0.82;48.77
61113;BME280;47184;57.998;56.184;2023-03-01T11:43:04;97436.00;;;0.51;49.45
61113;BME280;47184;57.998;56.184;2023-03-01T11:50:57;97446.06;;;0.45;50.48
61113;BME280;47184;57.998;56.184;2023-03-01T11:53:49;97444.41;;;0.53;50.57
61113;BME280;47184;57.998;56.184;2023-03-01T11:56:40;97446.19;;;0.52;50.84
61113;BME280;47184;57.998;56.184;2023-03-01T11:59:29;97447.34;;;0.49;50.86
61113;BME280;47184;57.998;56.184;2023-03-01T12:10:29;97442.38;;;3.08;46.78
61113;BME280;47184;57.998;56.184;2023-03-01T12:24:37;97442.28;;;1.93;45.32
61113;BME280;47184;57.998;56.184;2023-03-01T12:30:19;97441.69;;;0.87;47.31
61113;BME280;47184;57.998;56.184;2023-03-01T12:33:17;97424.59;;;0.35;47.71
61113;BME280;47184;57.998;56.184;2023-03-01T12:35:58;97440.94;;;0.19;48.25
61113;BME280;47184;57.998;56.184;2023-03-01T12:38:47;97439.72;;;-0.11;48.67
61113;BME280;47184;57.998;56.184;2023-03-01T12:44:09;97449.47;;;-0.39;49.85
61113;BME280;47184;57.998;56.184;2023-03-01T12:46:41;97448.28;;;-0.53;49.69
61113;BME280;47184;57.998;56.184;2023-03-01T12:52:27;97454.53;;;-0.63;49.91
61113;BME280;47184;57.998;56.184;2023-03-01T12:55:01;97433.34;;;-0.85;50.19
61113;BME280;47184;57.998;56.184;2023-03-01T12:57:52;97443.38;;;-1.08;50.52
61113;BME280;47184;57.998;56.184;2023-03-01T13:00:44;97440.66;;;-1.06;50.73
61113;BME280;47184;57.998;56.184;2023-03-01T13:06:25;97446.13;;;-1.09;50.98
61113;BME280;47184;57.998;56.184;2023-03-01T13:09:01;97447.59;;;-1.07;50.76
61113;BME280;47184;57.998;56.184;2023-03-01T13:11:30;97436.28;;;-1.23;50.38
61113;BME280;47184;57.998;56.184;2023-03-01T13:16:58;97422.09;;;-1.73;49.15
61113;BME280;47184;57.998;56.184;2023-03-01T13:19:28;97424.03;;;-1.57;48.66
61113;BME280;47184;57.998;56.184;2023-03-01T13:22:25;97438.75;;;-1.58;49.10
61113;BME280;47184;57.998;56.184;2023-03-01T13:25:14;97446.50;;;-1.58;48.78
61113;BME280;47184;57.998;56.184;2023-03-01T13:27:41;97434.31;;;-1.65;49.19
61113;BME280;47184;57.998;56.184;2023-03-01T13:33:48;97455.81;;;-1.65;48.89
61113;BME280;47184;57.998;56.184;2023-03-01T13:50:03;97459.00;;;-2.26;48.96
61113;BME280;47184;57.998;56.184;2023-03-01T13:52:50;97445.06;;;-2.43;49.04
61113;BME280;47184;57.998;56.184;2023-03-01T13:55:24;97454.88;;;-2.46;49.64
61113;BME280;47184;57.998;56.184;2023-03-01T13:57:57;97451.75;;;-2.40;49.96
61113;BME280;47184;57.998;56.184;2023-03-01T14:00:34;97455.41;;;-2.43;49.91
61113;BME280;47184;57.998;56.184;2023-03-01T14:05:28;97456.09;;;-2.41;50.00
61113;BME280;47184;57.998;56.184;2023-03-01T14:07:54;97446.47;;;-2.48;50.24
61113;BME280;47184;57.998;56.184;2023-03-01T14:10:21;97461.28;;;-2.41;49.77
61113;BME280;47184;57.998;56.184;2023-03-01T14:13:02;97458.00;;;-2.43;49.75
61113;BME280;47184;57.998;56.184;2023-03-01T14:15:50;97450.56;;;-2.56;49.90
61113;BME280;47184;57.998;56.184;2023-03-01T14:18:32;97453.81;;;-2.54;49.95
61113;BME280;47184;57.998;56.184;2023-03-01T14:21:08;97464.88;;;-2.71;49.66
61113;BME280;47184;57.998;56.184;2023-03-01T14:23:38;97454.59;;;-2.81;49.87
61113;BME280;47184;57.998;56.184;2023-03-01T14:26:08;97456.34;;;-2.81;49.88
61113;BME280;47184;57.998;56.184;2023-03-01T14:28:38;97445.47;;;-2.85;50.14
61113;BME280;47184;57.998;56.184;2023-03-01T14:33:56;97461.94;;;-2.86;50.15
61113;BME280;47184;57.998;56.184;2023-03-01T14:36:28;97459.66;;;-3.08;51.31
61113;BME280;47184;57.998;56.184;2023-03-01T14:38:55;97457.59;;;-3.05;51.30
61113;BME280;47184;57.998;56.184;2023-03-01T14:41:27;97470.78;;;-2.98;51.91
61113;BME280;47184;57.998;56.184;2023-03-01T14:44:00;97473.25;;;-3.26;52.91
61113;BME280;47184;57.998;56.184;2023-03-01T14:46:31;97469.84;;;-3.26;53.37
61113;BME280;47184;57.998;56.184;2023-03-01T14:51:30;97470.91;;;-3.19;53.48
61113;BME280;47184;57.998;56.184;2023-03-01T14:53:56;97455.59;;;-3.40;54.24
61113;BME280;47184;57.998;56.184;2023-03-01T14:56:23;97429.38;;;-3.45;53.65